createdAt,value
2019-05-31T00:01:19.535Z,99.90
2019-05-31T00:03:51.286Z,99.90
2019-05-31T00:06:21.594Z,99.90
2019-05-31T00:08:53.641Z,99.90
2019-05-31T00:11:25.595Z,99.90
2019-05-31T00:14:19.250Z,99.90
2019-05-31T00:16:31.504Z,99.90
2019-05-31T00:19:05.338Z,99.90
2019-05-31T00:21:35.391Z,99.90
2019-05-31T00:24:06.569Z,99.90
2019-05-31T00:26:37.217Z,99.90
2019-05-31T00:29:12.076Z,99.90
2019-05-31T00:31:42.511Z,99.90
2019-05-31T00:34:12.980Z,99.90
2019-05-31T00:36:43.732Z,99.90
2019-05-31T00:39:16.686Z,99.90
2019-05-31T00:41:47.254Z,99.90
2019-05-31T00:44:32.133Z,99.90
2019-05-31T00:46:55.843Z,99.90
2019-05-31T00:49:26.320Z,99.90
2019-05-31T00:51:57.816Z,99.90
2019-05-31T00:54:28.566Z,99.90
2019-05-31T00:57:16.011Z,99.90
2019-05-31T00:59:46.912Z,99.90
2019-05-31T01:02:18.918Z,99.90
2019-05-31T01:05:01.445Z,99.90
2019-05-31T01:07:34.655Z,99.90
2019-05-31T01:10:06.461Z,99.90
2019-05-31T01:12:37.642Z,99.90
2019-05-31T01:15:08.387Z,99.90
2019-05-31T01:17:41.369Z,99.90
2019-05-31T01:20:13.515Z,99.90
2019-05-31T01:22:43.997Z,99.90
2019-05-31T01:25:15.372Z,99.90
2019-05-31T01:27:45.779Z,99.90
2019-05-31T01:30:17.533Z,99.90
2019-05-31T01:32:47.667Z,99.90
2019-05-31T01:35:18.703Z,99.90
2019-05-31T01:37:48.804Z,99.90
2019-05-31T01:40:18.972Z,99.90
2019-05-31T01:42:53.519Z,99.90
2019-05-31T01:45:25.390Z,99.90
2019-05-31T01:47:57.767Z,99.90
2019-05-31T01:50:28.471Z,99.90
2019-05-31T01:52:58.616Z,99.90
2019-05-31T01:55:32.742Z,99.90
2019-05-31T01:58:02.904Z,99.90
2019-05-31T02:00:32.989Z,99.90
2019-05-31T02:03:04.302Z,99.90
2019-05-31T02:05:36.622Z,99.90
2019-05-31T02:08:09.291Z,99.90
2019-05-31T02:10:39.359Z,99.90
2019-05-31T02:13:09.409Z,99.90
2019-05-31T02:15:39.579Z,99.90
2019-05-31T02:18:10.553Z,99.90
2019-05-31T02:20:40.804Z,99.90
2019-05-31T02:23:11.937Z,99.90
2019-05-31T02:25:42.265Z,99.90
2019-05-31T02:28:13.364Z,99.90
2019-05-31T02:30:43.556Z,99.90
2019-05-31T02:33:15.829Z,99.90
2019-05-31T02:35:45.278Z,99.90
2019-05-31T02:38:16.458Z,99.90
2019-05-31T02:40:47.429Z,99.90
2019-05-31T02:43:18.544Z,99.90
2019-05-31T02:45:49.029Z,99.90
2019-05-31T02:48:19.418Z,99.90
2019-05-31T02:50:49.644Z,99.90
2019-05-31T02:53:23.193Z,99.90
2019-05-31T02:55:55.763Z,99.90
2019-05-31T02:58:28.227Z,99.90
2019-05-31T03:00:59.270Z,99.90
2019-05-31T03:03:31.322Z,99.90
2019-05-31T03:06:04.826Z,99.90
2019-05-31T03:08:37.053Z,99.90
2019-05-31T03:11:10.186Z,99.90
2019-05-31T03:13:43.694Z,99.90
2019-05-31T03:16:17.565Z,99.90
2019-05-31T03:18:49.712Z,99.90
2019-05-31T03:21:22.784Z,99.90
2019-05-31T03:23:53.766Z,99.90
2019-05-31T03:26:23.652Z,99.90
2019-05-31T03:28:54.300Z,99.90
2019-05-31T03:31:35.672Z,99.90
2019-05-31T03:34:00.543Z,99.90
2019-05-31T03:36:35.882Z,99.90
2019-05-31T03:39:02.496Z,99.90
2019-05-31T03:41:32.635Z,99.90
2019-05-31T03:44:02.777Z,99.90
2019-05-31T03:46:41.445Z,99.90
2019-05-31T03:49:05.329Z,99.90
2019-05-31T03:51:35.510Z,99.90
2019-05-31T03:54:05.650Z,99.90
2019-05-31T03:56:37.681Z,99.90
2019-05-31T03:59:09.950Z,99.90
2019-05-31T04:01:40.517Z,99.90
2019-05-31T04:04:10.864Z,99.90
2019-05-31T04:06:41.189Z,99.90
2019-05-31T04:09:16.674Z,99.90
2019-05-31T04:11:48.708Z,99.90
2019-05-31T04:14:20.765Z,99.90
2019-05-31T04:16:51.330Z,99.90
2019-05-31T04:19:23.690Z,99.90
2019-05-31T04:21:54.425Z,99.90
2019-05-31T04:24:26.205Z,99.90
2019-05-31T04:26:56.717Z,99.90
2019-05-31T04:29:28.033Z,99.90
2019-05-31T04:31:57.842Z,99.90
2019-05-31T04:34:32.764Z,99.90
2019-05-31T04:37:01.479Z,99.90
2019-05-31T04:39:34.371Z,99.90
2019-05-31T04:42:07.276Z,99.90
2019-05-31T04:44:37.800Z,99.90
2019-05-31T04:47:11.451Z,99.90
2019-05-31T04:49:43.118Z,99.90
2019-05-31T04:52:13.293Z,99.90
2019-05-31T04:54:44.111Z,99.90
2019-05-31T04:57:18.162Z,99.90
2019-05-31T04:59:50.408Z,99.90
2019-05-31T05:02:22.760Z,99.90
2019-05-31T05:04:53.980Z,99.90
2019-05-31T05:07:26.798Z,99.90
2019-05-31T05:10:09.503Z,99.90
2019-05-31T05:12:39.969Z,99.90
2019-05-31T05:15:22.864Z,99.90
2019-05-31T05:18:22.454Z,99.90
2019-05-31T05:20:50.935Z,99.90
2019-05-31T05:23:24.872Z,99.90
2019-05-31T05:25:56.062Z,99.90
2019-05-31T05:28:27.727Z,99.90
2019-05-31T05:30:58.888Z,99.90
2019-05-31T05:33:30.050Z,99.90
2019-05-31T05:36:00.505Z,99.90
2019-05-31T05:38:32.064Z,99.90
2019-05-31T05:41:02.156Z,99.90
2019-05-31T05:43:32.755Z,99.90
2019-05-31T05:46:05.164Z,99.90
2019-05-31T05:48:35.193Z,99.90
2019-05-31T05:51:07.147Z,99.90
2019-05-31T05:53:42.288Z,99.90
2019-05-31T05:56:13.463Z,99.90
2019-05-31T05:58:46.472Z,99.90
2019-05-31T06:01:16.723Z,99.90
2019-05-31T06:03:48.237Z,99.90
2019-05-31T06:06:18.291Z,99.90
2019-05-31T06:08:48.571Z,99.90
2019-05-31T06:11:22.907Z,99.90
2019-05-31T06:13:55.458Z,99.90
2019-05-31T06:16:37.901Z,99.90
2019-05-31T06:19:03.770Z,99.90
2019-05-31T06:21:36.576Z,99.90
2019-05-31T06:24:06.038Z,99.90
2019-05-31T06:26:36.897Z,99.90
2019-05-31T06:29:07.524Z,99.90
2019-05-31T06:31:41.965Z,99.90
2019-05-31T06:34:14.926Z,99.90
2019-05-31T06:36:52.744Z,99.90
2019-05-31T06:39:24.854Z,99.90
2019-05-31T06:41:55.070Z,99.90
2019-05-31T06:44:25.243Z,99.90
2019-05-31T06:46:59.558Z,99.90
2019-05-31T06:49:30.637Z,99.90
2019-05-31T06:52:03.461Z,99.90
2019-05-31T06:54:38.069Z,99.90
2019-05-31T06:57:08.002Z,99.90
2019-05-31T06:59:38.447Z,99.90
2019-05-31T07:02:09.075Z,99.90
2019-05-31T07:04:44.117Z,99.90
2019-05-31T07:07:18.464Z,99.90
2019-05-31T07:09:49.878Z,99.50
2019-05-31T07:12:21.723Z,98.70
2019-05-31T07:14:54.533Z,95.80
2019-05-31T07:17:27.748Z,93.60
2019-05-31T07:20:01.383Z,92.30
2019-05-31T07:22:43.943Z,90.00
2019-05-31T07:25:16.246Z,90.40
2019-05-31T07:27:50.613Z,79.80
2019-05-31T07:30:23.265Z,73.50
2019-05-31T07:32:53.598Z,67.10
2019-05-31T07:35:24.620Z,67.20
2019-05-31T07:38:11.037Z,63.00
2019-05-31T07:40:49.029Z,62.30
2019-05-31T07:43:22.785Z,61.20
2019-05-31T07:45:53.311Z,59.50
2019-05-31T07:48:28.622Z,56.50
2019-05-31T07:51:02.320Z,56.60
2019-05-31T07:53:36.839Z,56.10
2019-05-31T07:56:11.068Z,55.20
2019-05-31T07:58:57.540Z,54.20
2019-05-31T08:01:28.720Z,52.30
2019-05-31T08:04:01.844Z,52.90
2019-05-31T08:06:34.536Z,54.00
2019-05-31T08:09:35.273Z,53.30
2019-05-31T08:12:36.339Z,54.80
2019-05-31T08:15:37.954Z,54.00
2019-05-31T08:18:29.890Z,52.70
2019-05-31T08:21:19.499Z,52.60
2019-05-31T08:23:57.397Z,50.60
2019-05-31T08:26:40.959Z,50.00
2019-05-31T08:29:25.900Z,51.20
2019-05-31T08:32:09.455Z,51.90
2019-05-31T08:35:20.353Z,52.60
2019-05-31T08:38:01.463Z,52.10
2019-05-31T08:40:32.999Z,54.30
2019-05-31T08:43:07.575Z,54.30
2019-05-31T08:45:46.072Z,54.20
2019-05-31T08:48:21.257Z,53.20
2019-05-31T08:50:53.075Z,51.70
2019-05-31T08:53:24.290Z,51.10
2019-05-31T08:55:57.256Z,49.30
2019-05-31T08:58:29.434Z,47.40
2019-05-31T09:01:01.348Z,47.30
2019-05-31T09:03:41.578Z,47.80
2019-05-31T09:06:07.575Z,46.10
2019-05-31T09:08:40.015Z,46.40
2019-05-31T09:11:12.272Z,47.40
2019-05-31T09:13:42.827Z,46.60
2019-05-31T09:16:18.299Z,46.70
2019-05-31T09:18:49.208Z,46.50
2019-05-31T09:21:31.320Z,46.40
2019-05-31T09:24:46.332Z,45.20
2019-05-31T09:27:21.880Z,44.90
2019-05-31T09:30:18.040Z,46.40
2019-05-31T09:32:39.767Z,45.30
2019-05-31T09:35:12.759Z,45.90
2019-05-31T09:37:44.818Z,44.40
2019-05-31T09:40:21.289Z,43.60
2019-05-31T09:42:56.603Z,43.40
2019-05-31T09:45:35.162Z,42.40
2019-05-31T09:48:37.708Z,43.20
2019-05-31T09:51:47.818Z,44.50
2019-05-31T09:54:37.070Z,45.00
2019-05-31T09:56:58.250Z,46.10
2019-05-31T09:59:40.381Z,45.80
2019-05-31T10:02:48.293Z,45.40
2019-05-31T10:05:26.363Z,45.10
2019-05-31T10:08:10.279Z,45.10
2019-05-31T10:10:45.657Z,43.60
2019-05-31T10:13:16.999Z,42.60
2019-05-31T10:15:47.534Z,43.10
2019-05-31T10:18:20.316Z,42.90
2019-05-31T10:20:58.730Z,42.20
2019-05-31T10:23:54.827Z,42.00
2019-05-31T10:26:26.680Z,41.90
2019-05-31T10:29:12.958Z,42.00
2019-05-31T10:32:00.329Z,41.60
2019-05-31T10:34:55.623Z,41.00
2019-05-31T10:37:29.186Z,41.60
2019-05-31T10:40:06.923Z,41.90
2019-05-31T10:43:09.122Z,41.90
2019-05-31T10:46:18.345Z,42.90
2019-05-31T10:49:15.262Z,43.80
2019-05-31T10:51:45.488Z,42.70
2019-05-31T10:54:17.769Z,42.70
2019-05-31T10:56:56.377Z,44.80
2019-05-31T10:59:27.051Z,44.60
2019-05-31T11:02:02.016Z,42.90
2019-05-31T11:04:45.004Z,42.30
2019-05-31T11:07:16.284Z,40.40
2019-05-31T11:09:50.001Z,40.70
2019-05-31T11:12:28.133Z,42.70
2019-05-31T11:15:10.492Z,43.70
2019-05-31T11:17:51.298Z,45.40
2019-05-31T11:20:26.079Z,44.10
2019-05-31T11:22:56.612Z,41.50
2019-05-31T11:25:30.341Z,40.10
2019-05-31T11:28:07.600Z,39.60
2019-05-31T11:30:56.297Z,39.20
2019-05-31T11:33:41.625Z,37.90
2019-05-31T11:36:15.924Z,38.00
2019-05-31T11:38:51.146Z,39.00
2019-05-31T11:41:21.556Z,39.90
2019-05-31T11:43:53.357Z,42.60
2019-05-31T11:46:25.880Z,44.70
2019-05-31T11:48:57.202Z,47.10
2019-05-31T11:51:32.349Z,47.70
2019-05-31T11:54:04.818Z,46.90
2019-05-31T11:56:49.661Z,44.20
2019-05-31T11:59:23.305Z,44.10
2019-05-31T12:02:02.969Z,44.90
2019-05-31T12:04:33.743Z,46.50
2019-05-31T12:07:08.635Z,48.10
2019-05-31T12:10:32.201Z,49.50
2019-05-31T12:13:13.292Z,50.50
2019-05-31T12:15:50.029Z,48.70
2019-05-31T12:18:33.876Z,47.10
2019-05-31T12:21:15.164Z,47.00
2019-05-31T12:23:54.670Z,47.80
2019-05-31T12:26:31.201Z,49.20
2019-05-31T12:29:20.552Z,50.90
2019-05-31T12:33:23.685Z,50.50
2019-05-31T12:36:03.849Z,50.40
2019-05-31T12:38:34.627Z,49.40
2019-05-31T12:41:21.345Z,48.60
2019-05-31T12:44:06.186Z,47.40
2019-05-31T12:46:52.049Z,46.40
2019-05-31T12:49:24.514Z,45.70
2019-05-31T12:52:07.024Z,47.20
2019-05-31T12:54:43.567Z,47.70
2019-05-31T12:57:26.547Z,48.00
2019-05-31T13:00:05.711Z,48.50
2019-05-31T13:02:50.897Z,49.50
2019-05-31T13:06:07.170Z,48.80
2019-05-31T13:08:41.911Z,48.40
2019-05-31T13:11:18.868Z,47.80
2019-05-31T13:13:52.945Z,47.40
2019-05-31T13:16:26.859Z,48.70
2019-05-31T13:18:58.885Z,48.80
2019-05-31T13:21:47.792Z,48.40
2019-05-31T13:24:25.902Z,47.20
2019-05-31T13:26:57.051Z,47.50
2019-05-31T13:29:35.719Z,47.90
2019-05-31T13:32:22.828Z,48.60
2019-05-31T13:35:05.115Z,49.40
2019-05-31T13:37:36.304Z,50.20
2019-05-31T13:40:18.104Z,51.50
2019-05-31T13:42:51.713Z,52.80
2019-05-31T13:45:24.233Z,53.70
2019-05-31T13:48:06.412Z,54.50
2019-05-31T13:50:32.852Z,54.70
2019-05-31T13:53:08.881Z,56.40
2019-05-31T13:55:42.664Z,57.30
2019-05-31T13:58:14.858Z,56.40
2019-05-31T14:00:47.368Z,57.40
2019-05-31T14:03:24.350Z,58.60
2019-05-31T14:06:10.705Z,58.80
2019-05-31T14:08:43.739Z,57.70
2019-05-31T14:11:24.280Z,55.90
2019-05-31T14:14:01.160Z,55.70
2019-05-31T14:16:37.518Z,56.30
2019-05-31T14:19:16.342Z,56.30
2019-05-31T14:21:49.429Z,56.60
2019-05-31T14:24:24.065Z,57.50
2019-05-31T14:27:00.353Z,58.90
2019-05-31T14:29:32.577Z,59.00
2019-05-31T14:32:07.573Z,59.70
2019-05-31T14:34:39.529Z,59.80
2019-05-31T14:37:21.787Z,62.40
2019-05-31T14:40:00.685Z,60.60
2019-05-31T14:42:30.434Z,58.50
2019-05-31T14:45:11.730Z,57.60
2019-05-31T14:47:57.096Z,57.60
2019-05-31T14:50:35.625Z,58.50
2019-05-31T14:53:19.969Z,57.80
2019-05-31T14:55:51.849Z,58.30
2019-05-31T14:58:37.875Z,59.30
2019-05-31T15:04:43.229Z,58.90
2019-05-31T15:07:25.171Z,59.40
2019-05-31T15:10:12.044Z,59.30
2019-05-31T15:12:56.086Z,59.10
2019-05-31T15:15:29.716Z,59.40
2019-05-31T15:18:03.985Z,59.10
2019-05-31T15:20:34.792Z,61.00
2019-05-31T15:23:07.394Z,62.80
2019-05-31T15:25:41.249Z,64.30
2019-05-31T15:28:14.911Z,65.90
2019-05-31T15:31:09.951Z,65.40
2019-05-31T15:34:15.949Z,66.30
2019-05-31T15:36:48.891Z,68.60
2019-05-31T15:39:29.138Z,69.40
2019-05-31T15:42:05.363Z,71.00
2019-05-31T15:44:46.009Z,71.90
2019-05-31T15:47:41.900Z,71.30
2019-05-31T15:50:18.366Z,70.50
2019-05-31T15:53:10.114Z,68.90
2019-05-31T15:55:49.930Z,71.00
2019-05-31T15:58:13.426Z,67.80
2019-05-31T16:01:08.211Z,67.80
2019-05-31T16:03:42.386Z,67.90
2019-05-31T16:06:38.959Z,68.50
2019-05-31T16:09:35.261Z,67.30
2019-05-31T16:12:13.161Z,68.10
2019-05-31T16:14:47.205Z,67.50
2019-05-31T16:17:19.937Z,67.90
2019-05-31T16:19:59.126Z,72.50
2019-05-31T16:22:30.839Z,75.90
2019-05-31T16:25:03.464Z,77.20
2019-05-31T16:28:18.124Z,74.60
2019-05-31T16:30:55.401Z,72.60
2019-05-31T16:33:40.916Z,71.80
2019-05-31T16:36:16.850Z,70.40
2019-05-31T16:38:49.139Z,71.50
2019-05-31T16:41:22.938Z,71.10
2019-05-31T16:43:55.525Z,70.70
2019-05-31T16:46:45.672Z,69.50
2019-05-31T16:49:19.194Z,70.70
2019-05-31T16:51:49.376Z,70.30
2019-05-31T16:54:26.978Z,71.30
2019-05-31T16:56:57.343Z,74.90
2019-05-31T16:59:31.399Z,74.60
2019-05-31T17:02:06.166Z,74.30
2019-05-31T17:04:41.260Z,74.80
2019-05-31T17:07:12.612Z,76.80
2019-05-31T17:09:48.255Z,78.70
2019-05-31T17:12:24.324Z,80.70
2019-05-31T17:15:01.482Z,81.60
2019-05-31T17:17:33.392Z,80.10
2019-05-31T17:20:27.172Z,80.90
2019-05-31T17:23:14.665Z,86.40
2019-05-31T17:25:48.615Z,87.00
2019-05-31T17:28:26.682Z,86.30
2019-05-31T17:31:05.397Z,88.30
2019-05-31T17:33:41.123Z,88.20
2019-05-31T17:36:23.429Z,87.90
2019-05-31T17:38:55.639Z,85.40
2019-05-31T17:41:32.376Z,86.30
2019-05-31T17:44:14.305Z,84.90
2019-05-31T17:47:01.534Z,88.40
2019-05-31T17:49:51.230Z,91.40
2019-05-31T17:52:22.960Z,91.90
2019-05-31T17:55:18.508Z,91.50
2019-05-31T17:57:59.373Z,90.20
2019-05-31T18:00:42.863Z,89.20
2019-05-31T18:03:43.457Z,90.60
2019-05-31T18:06:26.578Z,91.70
2019-05-31T18:09:04.209Z,92.30
2019-05-31T18:11:35.229Z,92.10
2019-05-31T18:14:08.768Z,92.20
2019-05-31T18:16:45.196Z,92.70
2019-05-31T18:19:18.792Z,92.20
2019-05-31T18:21:52.271Z,92.80
2019-05-31T18:24:30.240Z,93.00
2019-05-31T18:27:07.774Z,95.40
2019-05-31T18:29:48.780Z,94.80
2019-05-31T18:32:24.769Z,94.90
2019-05-31T18:34:58.207Z,95.20
2019-05-31T18:37:33.663Z,95.70
2019-05-31T18:40:09.863Z,95.40
2019-05-31T18:42:40.778Z,95.50
2019-05-31T18:45:26.834Z,95.70
2019-05-31T18:48:06.451Z,95.80
2019-05-31T18:50:44.260Z,95.60
2019-05-31T18:53:19.943Z,96.70
2019-05-31T18:55:50.839Z,97.90
2019-05-31T18:58:25.658Z,99.40
2019-05-31T19:01:03.219Z,99.00
2019-05-31T19:03:36.637Z,98.40
2019-05-31T19:06:12.864Z,98.30
2019-05-31T19:08:44.187Z,98.40
2019-05-31T19:11:19.571Z,98.70
2019-05-31T19:13:57.025Z,99.70
2019-05-31T19:16:46.116Z,99.70
2019-05-31T19:19:45.285Z,99.90
2019-05-31T19:22:32.417Z,99.90
2019-05-31T19:25:21.834Z,99.90
2019-05-31T19:27:53.326Z,99.90
2019-05-31T19:30:36.672Z,99.90
2019-05-31T19:33:25.793Z,99.90
2019-05-31T19:36:18.451Z,99.90
2019-05-31T19:38:52.787Z,99.90
2019-05-31T19:41:25.177Z,99.90
2019-05-31T19:44:18.874Z,99.90
2019-05-31T19:47:14.713Z,99.90
2019-05-31T19:50:08.326Z,99.90
2019-05-31T19:53:20.147Z,99.90
2019-05-31T19:56:38.643Z,99.90
2019-05-31T19:59:19.752Z,99.90
2019-05-31T20:01:59.760Z,99.90
2019-05-31T20:04:30.172Z,99.90
2019-05-31T20:07:10.677Z,99.90
2019-05-31T20:09:51.418Z,99.90
2019-05-31T20:12:27.391Z,99.90
2019-05-31T20:15:04.545Z,99.90
2019-05-31T20:17:36.928Z,99.90
2019-05-31T20:20:07.486Z,99.90
2019-05-31T20:22:47.303Z,99.90
2019-05-31T20:25:26.661Z,99.90
2019-05-31T20:28:00.930Z,99.90
2019-05-31T20:30:46.211Z,99.90
2019-05-31T20:33:26.294Z,99.90
2019-05-31T20:35:58.511Z,99.90
2019-05-31T20:38:43.559Z,99.90
2019-05-31T20:41:16.710Z,99.90
2019-05-31T20:43:41.644Z,99.90
2019-05-31T20:46:13.477Z,99.90
2019-05-31T20:48:56.540Z,99.90
2019-05-31T20:51:50.975Z,99.90
2019-05-31T20:54:37.703Z,99.90
2019-05-31T20:57:28.876Z,99.90
2019-05-31T21:00:12.693Z,99.90
2019-05-31T21:02:50.071Z,99.90
2019-05-31T21:05:40.121Z,99.90
2019-05-31T21:08:32.418Z,99.90
2019-05-31T21:11:11.798Z,99.90
2019-05-31T21:13:55.620Z,99.90
2019-05-31T21:16:32.201Z,99.90
2019-05-31T21:19:14.557Z,99.90
2019-05-31T21:21:48.111Z,99.90
2019-05-31T21:24:33.404Z,99.90
2019-05-31T21:27:13.055Z,99.90
2019-05-31T21:29:57.760Z,99.90
2019-05-31T21:32:29.287Z,99.90
2019-05-31T21:35:11.072Z,99.90
2019-05-31T21:37:43.839Z,99.90
2019-05-31T21:40:19.559Z,99.90
2019-05-31T21:46:17.240Z,99.90
2019-05-31T21:49:11.208Z,99.90
2019-05-31T21:51:49.674Z,99.90
2019-05-31T21:54:30.304Z,99.90
2019-05-31T21:57:04.088Z,99.90
2019-05-31T21:59:45.546Z,99.90
2019-05-31T22:02:28.617Z,99.90
2019-05-31T22:04:59.187Z,99.90
2019-05-31T22:07:39.804Z,99.90
2019-05-31T22:10:16.914Z,99.90
2019-05-31T22:13:18.288Z,99.90
2019-05-31T22:16:20.071Z,99.90
2019-05-31T22:19:00.205Z,99.90
2019-05-31T22:21:45.214Z,99.90
2019-05-31T22:24:30.424Z,99.90
2019-05-31T22:27:18.851Z,99.90
2019-05-31T22:29:53.428Z,99.90
2019-05-31T22:32:29.833Z,99.90
2019-05-31T22:35:00.493Z,99.90
2019-05-31T22:37:33.893Z,99.90
2019-05-31T22:40:09.889Z,99.90
2019-05-31T22:42:41.687Z,99.90
2019-05-31T22:45:22.158Z,99.90
2019-05-31T22:47:58.182Z,99.90
2019-05-31T22:50:39.390Z,99.90
2019-05-31T22:53:10.742Z,99.90
2019-05-31T22:55:41.972Z,99.90
2019-05-31T22:58:12.747Z,99.90
2019-05-31T23:00:50.330Z,99.90
2019-05-31T23:03:41.353Z,99.90
2019-05-31T23:06:41.151Z,99.90
2019-05-31T23:13:05.542Z,99.90
2019-05-31T23:15:51.571Z,99.90
2019-05-31T23:18:21.877Z,99.90
2019-05-31T23:20:52.727Z,99.90
2019-05-31T23:23:30.774Z,99.90
2019-05-31T23:26:18.820Z,99.90
2019-05-31T23:28:52.623Z,99.90
2019-05-31T23:31:26.256Z,99.90
2019-05-31T23:34:02.056Z,99.90
2019-05-31T23:36:42.656Z,99.90
2019-05-31T23:39:14.018Z,99.90
2019-05-31T23:41:46.800Z,99.90
2019-05-31T23:44:20.464Z,99.90
2019-05-31T23:47:05.231Z,99.90
2019-05-31T23:49:41.526Z,99.90
2019-05-31T23:52:14.275Z,99.90
2019-05-31T23:55:05.444Z,99.90
2019-05-31T23:57:57.312Z,99.90
